sensor_id;sensor_type;location;lat;lon;timestamp;pressure;altitude;pressure_sealevel;temperature
80246;BMP280;69558;39.208;-77.226;2023-05-07T00:14:28;100702.41;;;20.46
80246;BMP280;69558;39.208;-77.226;2023-05-07T00:18:04;100721.09;;;20.51
80246;BMP280;69558;39.208;-77.226;2023-05-07T00:21:38;100711.56;;;20.50
80246;BMP280;69558;39.208;-77.226;2023-05-07T00:25:09;100687.75;;;20.37
80246;BMP280;69558;39.208;-77.226;2023-05-07T00:28:49;100711.38;;;20.52
80246;BMP280;69558;39.208;-77.226;2023-05-07T00:32:48;100719.09;;;20.53
80246;BMP280;69558;39.208;-77.226;2023-05-07T00:36:28;100713.00;;;20.53
80246;BMP280;69558;39.208;-77.226;2023-05-07T00:40:17;100719.66;;;20.49
80246;BMP280;69558;39.208;-77.226;2023-05-07T00:44:12;100723.56;;;20.53
80246;BMP280;69558;39.208;-77.226;2023-05-07T00:47:31;100725.56;;;20.51
80246;BMP280;69558;39.208;-77.226;2023-05-07T00:50:25;100735.03;;;20.45
80246;BMP280;69558;39.208;-77.226;2023-05-07T00:53:53;100741.75;;;20.48
80246;BMP280;69558;39.208;-77.226;2023-05-07T00:57:21;100740.94;;;20.47
80246;BMP280;69558;39.208;-77.226;2023-05-07T01:00:47;100736.09;;;20.51
80246;BMP280;69558;39.208;-77.226;2023-05-07T01:04:17;100736.72;;;20.53
80246;BMP280;69558;39.208;-77.226;2023-05-07T01:15:30;100747.66;;;20.50
80246;BMP280;69558;39.208;-77.226;2023-05-07T01:18:53;100751.53;;;20.54
80246;BMP280;69558;39.208;-77.226;2023-05-07T01:22:28;100757.00;;;20.52
80246;BMP280;69558;39.208;-77.226;2023-05-07T01:25:53;100752.72;;;20.51
80246;BMP280;69558;39.208;-77.226;2023-05-07T01:29:20;100765.09;;;20.51
80246;BMP280;69558;39.208;-77.226;2023-05-07T01:32:56;100760.63;;;20.51
80246;BMP280;69558;39.208;-77.226;2023-05-07T01:36:15;100757.56;;;20.48
80246;BMP280;69558;39.208;-77.226;2023-05-07T01:39:45;100746.47;;;20.31
80246;BMP280;69558;39.208;-77.226;2023-05-07T01:43:15;100770.56;;;20.49
80246;BMP280;69558;39.208;-77.226;2023-05-07T01:46:32;100766.91;;;20.50
80246;BMP280;69558;39.208;-77.226;2023-05-07T01:49:57;100753.63;;;20.37
80246;BMP280;69558;39.208;-77.226;2023-05-07T01:52:59;100763.47;;;20.50
80246;BMP280;69558;39.208;-77.226;2023-05-07T01:56:20;100785.53;;;20.49
80246;BMP280;69558;39.208;-77.226;2023-05-07T02:00:01;100791.25;;;20.52
80246;BMP280;69558;39.208;-77.226;2023-05-07T02:07:44;100775.19;;;20.47
80246;BMP280;69558;39.208;-77.226;2023-05-07T02:11:44;100767.72;;;20.51
80246;BMP280;69558;39.208;-77.226;2023-05-07T02:15:15;100771.56;;;20.48
80246;BMP280;69558;39.208;-77.226;2023-05-07T02:18:47;100766.91;;;20.50
80246;BMP280;69558;39.208;-77.226;2023-05-07T02:22:20;100755.75;;;20.48
80246;BMP280;69558;39.208;-77.226;2023-05-07T02:25:48;100760.00;;;20.49
80246;BMP280;69558;39.208;-77.226;2023-05-07T02:29:13;100757.56;;;20.48
80246;BMP280;69558;39.208;-77.226;2023-05-07T02:32:51;100765.84;;;20.44
80246;BMP280;69558;39.208;-77.226;2023-05-07T02:36:30;100757.13;;;20.44
80246;BMP280;69558;39.208;-77.226;2023-05-07T02:39:49;100760.97;;;20.41
80246;BMP280;69558;39.208;-77.226;2023-05-07T02:43:16;100754.31;;;20.45
80246;BMP280;69558;39.208;-77.226;2023-05-07T02:46:43;100763.19;;;20.44
80246;BMP280;69558;39.208;-77.226;2023-05-07T02:50:09;100753.06;;;20.41
80246;BMP280;69558;39.208;-77.226;2023-05-07T02:53:29;100759.38;;;20.47
80246;BMP280;69558;39.208;-77.226;2023-05-07T02:57:01;100730.66;;;20.31
80246;BMP280;69558;39.208;-77.226;2023-05-07T03:00:32;100764.19;;;20.43
80246;BMP280;69558;39.208;-77.226;2023-05-07T03:03:57;100765.66;;;20.46
80246;BMP280;69558;39.208;-77.226;2023-05-07T03:07:28;100764.19;;;20.43
80246;BMP280;69558;39.208;-77.226;2023-05-07T03:11:05;100764.66;;;20.47
80246;BMP280;69558;39.208;-77.226;2023-05-07T03:14:33;100763.38;;;20.43
80246;BMP280;69558;39.208;-77.226;2023-05-07T03:18:21;100771.09;;;20.44
80246;BMP280;69558;39.208;-77.226;2023-05-07T03:21:50;100755.28;;;20.44
80246;BMP280;69558;39.208;-77.226;2023-05-07T03:25:09;100745.75;;;20.43
80246;BMP280;69558;39.208;-77.226;2023-05-07T03:28:36;100755.84;;;20.40
80246;BMP280;69558;39.208;-77.226;2023-05-07T03:32:00;100752.47;;;20.46
80246;BMP280;69558;39.208;-77.226;2023-05-07T03:35:31;100750.78;;;20.38
80246;BMP280;69558;39.208;-77.226;2023-05-07T03:38:41;100741.06;;;20.39
80246;BMP280;69558;39.208;-77.226;2023-05-07T03:42:04;100748.94;;;20.39
80246;BMP280;69558;39.208;-77.226;2023-05-07T03:45:32;100747.94;;;20.40
80246;BMP280;69558;39.208;-77.226;2023-05-07T03:48:30;100736.56;;;20.33
80246;BMP280;69558;39.208;-77.226;2023-05-07T03:51:46;100743.53;;;20.40
80246;BMP280;69558;39.208;-77.226;2023-05-07T03:55:14;100725.44;;;20.37
80246;BMP280;69558;39.208;-77.226;2023-05-07T03:58:47;100722.22;;;20.42
80246;BMP280;69558;39.208;-77.226;2023-05-07T04:01:59;100714.88;;;20.37
80246;BMP280;69558;39.208;-77.226;2023-05-07T04:05:02;100730.94;;;20.42
80246;BMP280;69558;39.208;-77.226;2023-05-07T04:08:05;100728.06;;;20.37
80246;BMP280;69558;39.208;-77.226;2023-05-07T04:11:19;100730.69;;;20.37
80246;BMP280;69558;39.208;-77.226;2023-05-07T04:14:54;100721.78;;;20.38
80246;BMP280;69558;39.208;-77.226;2023-05-07T04:18:20;100692.47;;;20.20
80246;BMP280;69558;39.208;-77.226;2023-05-07T04:21:47;100717.75;;;20.36
80246;BMP280;69558;39.208;-77.226;2023-05-07T04:25:22;100710.25;;;20.39
80246;BMP280;69558;39.208;-77.226;2023-05-07T04:28:46;100707.34;;;20.34
80246;BMP280;69558;39.208;-77.226;2023-05-07T04:32:34;100673.81;;;20.22
80246;BMP280;69558;39.208;-77.226;2023-05-07T04:39:12;100693.16;;;20.29
80246;BMP280;69558;39.208;-77.226;2023-05-07T04:42:48;100689.47;;;20.30
80246;BMP280;69558;39.208;-77.226;2023-05-07T04:46:32;100679.38;;;20.33
80246;BMP280;69558;39.208;-77.226;2023-05-07T04:49:58;100676.97;;;20.32
80246;BMP280;69558;39.208;-77.226;2023-05-07T04:53:12;100682.38;;;20.30
80246;BMP280;69558;39.208;-77.226;2023-05-07T04:56:09;100666.81;;;20.29
80246;BMP280;69558;39.208;-77.226;2023-05-07T04:59:08;100672.09;;;20.35
80246;BMP280;69558;39.208;-77.226;2023-05-07T05:02:27;100663.53;;;20.27
80246;BMP280;69558;39.208;-77.226;2023-05-07T05:05:30;100676.19;;;20.38
80246;BMP280;69558;39.208;-77.226;2023-05-07T05:08:38;100679.63;;;20.38
80246;BMP280;69558;39.208;-77.226;2023-05-07T05:11:59;100682.47;;;20.37
80246;BMP280;69558;39.208;-77.226;2023-05-07T05:15:37;100677.78;;;20.32
80246;BMP280;69558;39.208;-77.226;2023-05-07T05:18:38;100674.50;;;20.30
80246;BMP280;69558;39.208;-77.226;2023-05-07T05:21:10;100672.50;;;20.32
80246;BMP280;69558;39.208;-77.226;2023-05-07T05:23:37;100673.91;;;20.35
80246;BMP280;69558;39.208;-77.226;2023-05-07T05:26:05;100679.19;;;20.35
80246;BMP280;69558;39.208;-77.226;2023-05-07T05:29:02;100672.69;;;20.31
80246;BMP280;69558;39.208;-77.226;2023-05-07T05:32:14;100669.22;;;20.30
80246;BMP280;69558;39.208;-77.226;2023-05-07T05:35:35;100663.22;;;20.36
80246;BMP280;69558;39.208;-77.226;2023-05-07T05:39:00;100668.84;;;20.33
80246;BMP280;69558;39.208;-77.226;2023-05-07T05:42:14;100675.38;;;20.37
80246;BMP280;69558;39.208;-77.226;2023-05-07T05:45:15;100663.78;;;20.32
80246;BMP280;69558;39.208;-77.226;2023-05-07T05:48:30;100649.81;;;20.31
80246;BMP280;69558;39.208;-77.226;2023-05-07T05:51:42;100657.72;;;20.38
80246;BMP280;69558;39.208;-77.226;2023-05-07T05:55:04;100655.31;;;20.36
80246;BMP280;69558;39.208;-77.226;2023-05-07T05:58:08;100626.66;;;20.27
80246;BMP280;69558;39.208;-77.226;2023-05-07T06:01:33;100618.50;;;20.22
80246;BMP280;69558;39.208;-77.226;2023-05-07T06:04:55;100637.84;;;20.35
80246;BMP280;69558;39.208;-77.226;2023-05-07T06:08:57;100641.91;;;20.38
80246;BMP280;69558;39.208;-77.226;2023-05-07T06:12:36;100635.41;;;20.34
80246;BMP280;69558;39.208;-77.226;2023-05-07T06:16:05;100641.09;;;20.37
80246;BMP280;69558;39.208;-77.226;2023-05-07T06:19:14;100639.06;;;20.33
80246;BMP280;69558;39.208;-77.226;2023-05-07T06:22:16;100639.66;;;20.35
80246;BMP280;69558;39.208;-77.226;2023-05-07T06:25:03;100630.56;;;20.37
80246;BMP280;69558;39.208;-77.226;2023-05-07T06:28:15;100597.84;;;20.25
80246;BMP280;69558;39.208;-77.226;2023-05-07T06:31:36;100621.63;;;20.32
80246;BMP280;69558;39.208;-77.226;2023-05-07T06:35:04;100627.31;;;20.35
80246;BMP280;69558;39.208;-77.226;2023-05-07T06:38:38;100631.34;;;20.31
80246;BMP280;69558;39.208;-77.226;2023-05-07T06:41:34;100620.00;;;20.31
80246;BMP280;69558;39.208;-77.226;2023-05-07T06:44:43;100613.06;;;20.30
80246;BMP280;69558;39.208;-77.226;2023-05-07T06:48:19;100606.63;;;20.32
80246;BMP280;69558;39.208;-77.226;2023-05-07T06:51:31;100610.53;;;20.36
80246;BMP280;69558;39.208;-77.226;2023-05-07T06:55:10;100608.63;;;20.30
80246;BMP280;69558;39.208;-77.226;2023-05-07T06:58:33;100611.13;;;20.38
80246;BMP280;69558;39.208;-77.226;2023-05-07T07:02:03;100607.81;;;20.30
80246;BMP280;69558;39.208;-77.226;2023-05-07T07:05:18;100608.47;;;20.32
80246;BMP280;69558;39.208;-77.226;2023-05-07T07:08:42;100605.59;;;20.33
80246;BMP280;69558;39.208;-77.226;2023-05-07T07:12:00;100551.88;;;20.00
80246;BMP280;69558;39.208;-77.226;2023-05-07T07:15:08;100599.16;;;20.36
80246;BMP280;69558;39.208;-77.226;2023-05-07T07:18:51;100604.44;;;20.36
80246;BMP280;69558;39.208;-77.226;2023-05-07T07:22:33;100599.09;;;20.29
80246;BMP280;69558;39.208;-77.226;2023-05-07T07:25:46;100600.34;;;20.33
80246;BMP280;69558;39.208;-77.226;2023-05-07T07:28:48;100579.56;;;20.17
80246;BMP280;69558;39.208;-77.226;2023-05-07T07:32:09;100598.94;;;20.31
80246;BMP280;69558;39.208;-77.226;2023-05-07T07:35:21;100595.66;;;20.29
80246;BMP280;69558;39.208;-77.226;2023-05-07T07:38:47;100606.63;;;20.32
80246;BMP280;69558;39.208;-77.226;2023-05-07T07:42:08;100595.28;;;20.32
80246;BMP280;69558;39.208;-77.226;2023-05-07T07:45:27;100594.06;;;20.34
80246;BMP280;69558;39.208;-77.226;2023-05-07T07:48:41;100587.53;;;20.30
80246;BMP280;69558;39.208;-77.226;2023-05-07T07:51:46;100576.84;;;20.32
80246;BMP280;69558;39.208;-77.226;2023-05-07T07:55:06;100550.84;;;20.22
80246;BMP280;69558;39.208;-77.226;2023-05-07T07:58:30;100567.94;;;20.33
80246;BMP280;69558;39.208;-77.226;2023-05-07T08:01:25;100571.75;;;20.30
80246;BMP280;69558;39.208;-77.226;2023-05-07T08:04:38;100571.72;;;20.24
80246;BMP280;69558;39.208;-77.226;2023-05-07T08:07:39;100564.38;;;20.19
80246;BMP280;69558;39.208;-77.226;2023-05-07T08:10:37;100568.50;;;20.28
80246;BMP280;69558;39.208;-77.226;2023-05-07T08:13:43;100577.56;;;20.26
80246;BMP280;69558;39.208;-77.226;2023-05-07T08:16:38;100586.72;;;20.30
80246;BMP280;69558;39.208;-77.226;2023-05-07T08:19:30;100590.03;;;20.32
80246;BMP280;69558;39.208;-77.226;2023-05-07T08:22:30;100590.19;;;20.30
80246;BMP280;69558;39.208;-77.226;2023-05-07T08:25:36;100593.66;;;20.31
80246;BMP280;69558;39.208;-77.226;2023-05-07T08:28:54;100588.34;;;20.24
80246;BMP280;69558;39.208;-77.226;2023-05-07T08:32:01;100598.50;;;20.27
80246;BMP280;69558;39.208;-77.226;2023-05-07T08:35:15;100594.03;;;20.28
80246;BMP280;69558;39.208;-77.226;2023-05-07T08:38:30;100584.88;;;20.24
80246;BMP280;69558;39.208;-77.226;2023-05-07T08:41:05;100549.56;;;20.11
80246;BMP280;69558;39.208;-77.226;2023-05-07T08:44:29;100581.09;;;20.33
80246;BMP280;69558;39.208;-77.226;2023-05-07T08:48:14;100574.59;;;20.29
80246;BMP280;69558;39.208;-77.226;2023-05-07T08:51:24;100570.91;;;20.30
80246;BMP280;69558;39.208;-77.226;2023-05-07T08:54:57;100564.41;;;20.26
80246;BMP280;69558;39.208;-77.226;2023-05-07T08:58:18;100560.78;;;20.27
80246;BMP280;69558;39.208;-77.226;2023-05-07T09:02:00;100559.78;;;20.28
80246;BMP280;69558;39.208;-77.226;2023-05-07T09:05:23;100553.72;;;20.27
80246;BMP280;69558;39.208;-77.226;2023-05-07T09:08:38;100555.09;;;20.23
80246;BMP280;69558;39.208;-77.226;2023-05-07T09:11:38;100549.25;;;20.28
80246;BMP280;69558;39.208;-77.226;2023-05-07T09:14:54;100542.34;;;20.27
80246;BMP280;69558;39.208;-77.226;2023-05-07T09:22:18;100509.09;;;20.26
80246;BMP280;69558;39.208;-77.226;2023-05-07T09:25:05;100507.91;;;20.28
80246;BMP280;69558;39.208;-77.226;2023-05-07T09:28:19;100505.44;;;20.20
80246;BMP280;69558;39.208;-77.226;2023-05-07T09:31:55;100504.03;;;20.24
80246;BMP280;69558;39.208;-77.226;2023-05-07T09:34:54;100512.56;;;20.26
80246;BMP280;69558;39.208;-77.226;2023-05-07T09:38:07;100505.88;;;20.30
80246;BMP280;69558;39.208;-77.226;2023-05-07T09:45:26;100451.81;;;20.00
80246;BMP280;69558;39.208;-77.226;2023-05-07T09:48:36;100504.25;;;20.29
80246;BMP280;69558;39.208;-77.226;2023-05-07T09:55:51;100504.81;;;20.25
80246;BMP280;69558;39.208;-77.226;2023-05-07T09:59:38;100470.72;;;20.10
80246;BMP280;69558;39.208;-77.226;2023-05-07T10:03:19;100494.94;;;20.27
80246;BMP280;69558;39.208;-77.226;2023-05-07T10:07:10;100492.69;;;20.30
80246;BMP280;69558;39.208;-77.226;2023-05-07T10:11:01;100501.84;;;20.28
80246;BMP280;69558;39.208;-77.226;2023-05-07T10:14:41;100482.34;;;20.22
80246;BMP280;69558;39.208;-77.226;2023-05-07T10:18:32;100492.31;;;20.27
80246;BMP280;69558;39.208;-77.226;2023-05-07T10:22:18;100488.63;;;20.21
80246;BMP280;69558;39.208;-77.226;2023-05-07T10:25:43;100493.50;;;20.24
80246;BMP280;69558;39.208;-77.226;2023-05-07T10:33:19;100509.50;;;20.23
80246;BMP280;69558;39.208;-77.226;2023-05-07T10:40:50;100510.75;;;20.27
80246;BMP280;69558;39.208;-77.226;2023-05-07T10:59:40;100510.31;;;20.23
80246;BMP280;69558;39.208;-77.226;2023-05-07T11:11:06;100512.06;;;20.16
80246;BMP280;69558;39.208;-77.226;2023-05-07T11:15:13;100511.69;;;20.19
80246;BMP280;69558;39.208;-77.226;2023-05-07T11:59:03;100427.41;;;20.19
80246;BMP280;69558;39.208;-77.226;2023-05-07T12:06:35;100424.41;;;20.22
80246;BMP280;69558;39.208;-77.226;2023-05-07T12:10:40;100409.97;;;20.11
80246;BMP280;69558;39.208;-77.226;2023-05-07T12:17:58;100453.13;;;20.17
80246;BMP280;69558;39.208;-77.226;2023-05-07T12:21:42;100447.69;;;20.19
80246;BMP280;69558;39.208;-77.226;2023-05-07T12:25:25;100444.00;;;20.13
80246;BMP280;69558;39.208;-77.226;2023-05-07T12:29:04;100441.50;;;20.05
80246;BMP280;69558;39.208;-77.226;2023-05-07T13:37:04;100383.44;;;20.20
80246;BMP280;69558;39.208;-77.226;2023-05-07T13:40:54;100369.47;;;20.19
80246;BMP280;69558;39.208;-77.226;2023-05-07T13:44:33;100377.56;;;20.18
80246;BMP280;69558;39.208;-77.226;2023-05-07T13:48:29;100382.25;;;20.22
80246;BMP280;69558;39.208;-77.226;2023-05-07T13:52:24;100379.63;;;20.22
80246;BMP280;69558;39.208;-77.226;2023-05-07T13:56:28;100385.50;;;20.24
80246;BMP280;69558;39.208;-77.226;2023-05-07T15:08:11;100295.91;;;20.18
80246;BMP280;69558;39.208;-77.226;2023-05-07T15:11:44;100292.28;;;20.19
80246;BMP280;69558;39.208;-77.226;2023-05-07T16:03:45;100216.72;;;20.19
80246;BMP280;69558;39.208;-77.226;2023-05-07T16:07:51;100207.59;;;20.15
80246;BMP280;69558;39.208;-77.226;2023-05-07T16:11:49;100210.81;;;20.17
80246;BMP280;69558;39.208;-77.226;2023-05-07T16:15:19;100210.22;;;20.22
80246;BMP280;69558;39.208;-77.226;2023-05-07T16:19:15;100189.34;;;20.13
80246;BMP280;69558;39.208;-77.226;2023-05-07T16:23:25;100191.97;;;20.13
80246;BMP280;69558;39.208;-77.226;2023-05-07T17:03:16;100140.31;;;20.19
80246;BMP280;69558;39.208;-77.226;2023-05-07T17:06:58;100127.97;;;20.20
80246;BMP280;69558;39.208;-77.226;2023-05-07T17:10:55;100122.94;;;20.11
80246;BMP280;69558;39.208;-77.226;2023-05-07T17:14:46;100119.25;;;20.19
80246;BMP280;69558;39.208;-77.226;2023-05-07T17:18:13;100099.59;;;20.15
80246;BMP280;69558;39.208;-77.226;2023-05-07T17:21:54;100100.22;;;20.17
80246;BMP280;69558;39.208;-77.226;2023-05-07T17:25:46;100086.22;;;20.17
80246;BMP280;69558;39.208;-77.226;2023-05-07T17:33:20;100077.13;;;20.19
80246;BMP280;69558;39.208;-77.226;2023-05-07T19:13:37;99900.09;;;20.10
80246;BMP280;69558;39.208;-77.226;2023-05-07T19:21:20;99889.72;;;20.22
80246;BMP280;69558;39.208;-77.226;2023-05-07T19:35:49;99884.88;;;20.19
80246;BMP280;69558;39.208;-77.226;2023-05-07T19:39:34;99876.56;;;20.22
80246;BMP280;69558;39.208;-77.226;2023-05-07T19:43:18;99861.78;;;20.21
80246;BMP280;69558;39.208;-77.226;2023-05-07T21:14:54;99838.13;;;20.08
80246;BMP280;69558;39.208;-77.226;2023-05-07T21:17:21;99813.25;;;19.91
80246;BMP280;69558;39.208;-77.226;2023-05-07T21:19:48;99826.44;;;19.97
80246;BMP280;69558;39.208;-77.226;2023-05-07T21:22:14;99823.38;;;19.87
80246;BMP280;69558;39.208;-77.226;2023-05-07T21:24:41;99821.00;;;19.86
80246;BMP280;69558;39.208;-77.226;2023-05-07T21:27:08;99817.53;;;19.85
80246;BMP280;69558;39.208;-77.226;2023-05-07T21:29:34;99810.88;;;19.83
80246;BMP280;69558;39.208;-77.226;2023-05-07T21:32:00;99807.03;;;19.78
80246;BMP280;69558;39.208;-77.226;2023-05-07T21:34:29;99816.13;;;19.89
80246;BMP280;69558;39.208;-77.226;2023-05-07T21:36:55;99828.88;;;19.92
80246;BMP280;69558;39.208;-77.226;2023-05-07T21:39:20;99832.09;;;19.94
80246;BMP280;69558;39.208;-77.226;2023-05-07T21:41:47;99816.94;;;19.83
80246;BMP280;69558;39.208;-77.226;2023-05-07T21:44:14;99828.22;;;19.90
80246;BMP280;69558;39.208;-77.226;2023-05-07T21:46:41;99814.91;;;19.85
80246;BMP280;69558;39.208;-77.226;2023-05-07T21:49:08;99820.78;;;19.94
80246;BMP280;69558;39.208;-77.226;2023-05-07T21:51:34;99830.03;;;19.96
80246;BMP280;69558;39.208;-77.226;2023-05-07T21:54:01;99807.59;;;19.87
80246;BMP280;69558;39.208;-77.226;2023-05-07T21:56:28;99828.03;;;19.98
80246;BMP280;69558;39.208;-77.226;2023-05-07T21:58:54;99830.25;;;19.95
80246;BMP280;69558;39.208;-77.226;2023-05-07T22:01:20;99833.69;;;19.95
80246;BMP280;69558;39.208;-77.226;2023-05-07T22:03:46;99826.25;;;19.92
80246;BMP280;69558;39.208;-77.226;2023-05-07T22:06:13;99811.88;;;19.88
80246;BMP280;69558;39.208;-77.226;2023-05-07T22:08:38;99807.59;;;19.94
80246;BMP280;69558;39.208;-77.226;2023-05-07T22:11:05;99803.53;;;19.98
80246;BMP280;69558;39.208;-77.226;2023-05-07T22:13:32;99776.00;;;19.87
80246;BMP280;69558;39.208;-77.226;2023-05-07T22:15:58;99802.91;;;19.96
80246;BMP280;69558;39.208;-77.226;2023-05-07T22:18:25;99802.53;;;19.99
80246;BMP280;69558;39.208;-77.226;2023-05-07T22:20:51;99791.19;;;19.98
80246;BMP280;69558;39.208;-77.226;2023-05-07T22:23:17;99788.56;;;19.98
80246;BMP280;69558;39.208;-77.226;2023-05-07T22:25:45;99793.19;;;19.96
80246;BMP280;69558;39.208;-77.226;2023-05-07T22:28:12;99769.56;;;19.83
80246;BMP280;69558;39.208;-77.226;2023-05-07T22:30:38;99777.25;;;19.85
80246;BMP280;69558;39.208;-77.226;2023-05-07T22:33:04;99788.56;;;19.98
80246;BMP280;69558;39.208;-77.226;2023-05-07T22:35:30;99784.31;;;19.97
80246;BMP280;69558;39.208;-77.226;2023-05-07T22:37:56;99772.34;;;19.95
80246;BMP280;69558;39.208;-77.226;2023-05-07T22:40:23;99782.47;;;19.98
80246;BMP280;69558;39.208;-77.226;2023-05-07T22:42:50;99775.16;;;20.00
80246;BMP280;69558;39.208;-77.226;2023-05-07T22:45:16;99772.31;;;20.01
80246;BMP280;69558;39.208;-77.226;2023-05-07T22:47:42;99760.16;;;20.00
80246;BMP280;69558;39.208;-77.226;2023-05-07T22:50:08;99756.97;;;19.98
80246;BMP280;69558;39.208;-77.226;2023-05-07T22:52:34;99766.28;;;19.94
80246;BMP280;69558;39.208;-77.226;2023-05-07T22:55:01;99771.16;;;19.97
80246;BMP280;69558;39.208;-77.226;2023-05-07T22:57:27;99753.53;;;19.98
80246;BMP280;69558;39.208;-77.226;2023-05-07T22:59:57;99765.03;;;19.97
80246;BMP280;69558;39.208;-77.226;2023-05-07T23:02:23;99741.63;;;19.89
80246;BMP280;69558;39.208;-77.226;2023-05-07T23:04:53;99745.00;;;19.96
80246;BMP280;69558;39.208;-77.226;2023-05-07T23:07:20;99742.38;;;19.96
80246;BMP280;69558;39.208;-77.226;2023-05-07T23:09:46;99739.09;;;20.00
80246;BMP280;69558;39.208;-77.226;2023-05-07T23:12:12;99737.91;;;19.96
80246;BMP280;69558;39.208;-77.226;2023-05-07T23:14:38;99723.75;;;19.91
80246;BMP280;69558;39.208;-77.226;2023-05-07T23:17:04;99730.63;;;19.98
80246;BMP280;69558;39.208;-77.226;2023-05-07T23:19:30;99723.31;;;20.00
80246;BMP280;69558;39.208;-77.226;2023-05-07T23:21:56;99724.34;;;19.99
80246;BMP280;69558;39.208;-77.226;2023-05-07T23:24:22;99720.28;;;19.97
80246;BMP280;69558;39.208;-77.226;2023-05-07T23:26:48;99696.06;;;19.88
80246;BMP280;69558;39.208;-77.226;2023-05-07T23:29:16;99703.25;;;19.99
80246;BMP280;69558;39.208;-77.226;2023-05-07T23:31:46;99697.00;;;20.00
80246;BMP280;69558;39.208;-77.226;2023-05-07T23:34:12;99691.31;;;20.03
80246;BMP280;69558;39.208;-77.226;2023-05-07T23:36:38;99680.38;;;20.00
80246;BMP280;69558;39.208;-77.226;2023-05-07T23:39:05;99668.41;;;20.04
80246;BMP280;69558;39.208;-77.226;2023-05-07T23:41:32;99647.22;;;19.99
80246;BMP280;69558;39.208;-77.226;2023-05-07T23:43:58;99648.16;;;20.04
80246;BMP280;69558;39.208;-77.226;2023-05-07T23:46:24;99645.34;;;19.99
80246;BMP280;69558;39.208;-77.226;2023-05-07T23:48:51;99652.06;;;20.02
80246;BMP280;69558;39.208;-77.226;2023-05-07T23:51:17;99635.63;;;20.00
80246;BMP280;69558;39.208;-77.226;2023-05-07T23:53:44;99633.00;;;20.00
80246;BMP280;69558;39.208;-77.226;2023-05-07T23:56:11;99641.78;;;19.94
80246;BMP280;69558;39.208;-77.226;2023-05-07T23:58:37;99624.81;;;19.83
